sensor_id;sensor_type;location;lat;lon;timestamp;P1;durP1;ratioP1;P2;durP2;ratioP2
53903;SDS011;39812;52.430;16.936;2022-09-03T00:01:07;5.22;;;3.13;;
53903;SDS011;39812;52.430;16.936;2022-09-03T00:03:39;5.68;;;3.25;;
53903;SDS011;39812;52.430;16.936;2022-09-03T00:06:15;5.18;;;2.97;;
53903;SDS011;39812;52.430;16.936;2022-09-03T00:09:02;6.43;;;3.08;;
53903;SDS011;39812;52.430;16.936;2022-09-03T00:11:36;4.60;;;2.72;;
53903;SDS011;39812;52.430;16.936;2022-09-03T00:14:13;5.50;;;3.55;;
53903;SDS011;39812;52.430;16.936;2022-09-03T00:16:44;4.18;;;2.80;;
53903;SDS011;39812;52.430;16.936;2022-09-03T00:19:12;5.25;;;3.15;;
53903;SDS011;39812;52.430;16.936;2022-09-03T00:21:44;6.15;;;3.25;;
53903;SDS011;39812;52.430;16.936;2022-09-03T00:24:15;7.40;;;3.65;;
53903;SDS011;39812;52.430;16.936;2022-09-03T00:26:45;4.57;;;2.80;;
53903;SDS011;39812;52.430;16.936;2022-09-03T00:29:19;7.60;;;3.53;;
53903;SDS011;39812;52.430;16.936;2022-09-03T00:31:52;4.72;;;2.92;;
53903;SDS011;39812;52.430;16.936;2022-09-03T00:34:23;6.00;;;3.30;;
53903;SDS011;39812;52.430;16.936;2022-09-03T00:36:55;3.95;;;2.83;;
53903;SDS011;39812;52.430;16.936;2022-09-03T00:39:22;5.68;;;2.85;;
53903;SDS011;39812;52.430;16.936;2022-09-03T00:42:02;3.70;;;2.63;;
53903;SDS011;39812;52.430;16.936;2022-09-03T00:44:43;3.83;;;2.90;;
53903;SDS011;39812;52.430;16.936;2022-09-03T00:55:02;3.75;;;2.53;;
53903;SDS011;39812;52.430;16.936;2022-09-03T00:58:04;5.50;;;2.63;;
53903;SDS011;39812;52.430;16.936;2022-09-03T01:00:34;6.55;;;2.75;;
53903;SDS011;39812;52.430;16.936;2022-09-03T01:03:03;7.78;;;3.05;;
53903;SDS011;39812;52.430;16.936;2022-09-03T01:05:58;2.78;;;2.08;;
53903;SDS011;39812;52.430;16.936;2022-09-03T01:14:13;5.50;;;2.40;;
53903;SDS011;39812;52.430;16.936;2022-09-03T01:16:48;4.43;;;2.60;;
53903;SDS011;39812;52.430;16.936;2022-09-03T01:19:32;4.50;;;2.33;;
53903;SDS011;39812;52.430;16.936;2022-09-03T01:25:23;4.68;;;2.72;;
53903;SDS011;39812;52.430;16.936;2022-09-03T01:36:33;3.78;;;2.17;;
53903;SDS011;39812;52.430;16.936;2022-09-03T01:39:10;2.47;;;1.70;;
53903;SDS011;39812;52.430;16.936;2022-09-03T01:41:47;5.68;;;2.90;;
53903;SDS011;39812;52.430;16.936;2022-09-03T01:44:50;4.78;;;2.15;;
53903;SDS011;39812;52.430;16.936;2022-09-03T01:53:33;5.22;;;2.33;;
53903;SDS011;39812;52.430;16.936;2022-09-03T01:56:49;3.83;;;2.30;;
53903;SDS011;39812;52.430;16.936;2022-09-03T01:59:32;5.63;;;2.45;;
53903;SDS011;39812;52.430;16.936;2022-09-03T02:07:33;5.15;;;2.97;;
53903;SDS011;39812;52.430;16.936;2022-09-03T02:10:26;5.35;;;3.17;;
53903;SDS011;39812;52.430;16.936;2022-09-03T02:12:58;5.55;;;3.05;;
53903;SDS011;39812;52.430;16.936;2022-09-03T02:15:29;5.20;;;2.85;;
53903;SDS011;39812;52.430;16.936;2022-09-03T02:17:56;6.15;;;3.05;;
53903;SDS011;39812;52.430;16.936;2022-09-03T02:20:26;5.63;;;2.90;;
53903;SDS011;39812;52.430;16.936;2022-09-03T02:22:53;4.10;;;2.75;;
53903;SDS011;39812;52.430;16.936;2022-09-03T02:25:21;5.68;;;3.17;;
53903;SDS011;39812;52.430;16.936;2022-09-03T02:27:52;4.50;;;3.03;;
53903;SDS011;39812;52.430;16.936;2022-09-03T02:30:18;5.28;;;3.08;;
53903;SDS011;39812;52.430;16.936;2022-09-03T02:32:43;5.88;;;3.08;;
53903;SDS011;39812;52.430;16.936;2022-09-03T02:35:09;4.07;;;3.00;;
53903;SDS011;39812;52.430;16.936;2022-09-03T02:37:34;4.63;;;3.30;;
53903;SDS011;39812;52.430;16.936;2022-09-03T02:40:00;5.03;;;3.03;;
53903;SDS011;39812;52.430;16.936;2022-09-03T02:42:29;6.20;;;2.83;;
53903;SDS011;39812;52.430;16.936;2022-09-03T02:44:57;4.75;;;3.28;;
53903;SDS011;39812;52.430;16.936;2022-09-03T02:47:28;6.30;;;3.42;;
53903;SDS011;39812;52.430;16.936;2022-09-03T02:49:57;7.57;;;3.50;;
53903;SDS011;39812;52.430;16.936;2022-09-03T02:52:22;8.65;;;4.00;;
53903;SDS011;39812;52.430;16.936;2022-09-03T02:54:47;5.57;;;3.20;;
53903;SDS011;39812;52.430;16.936;2022-09-03T02:57:14;5.80;;;3.15;;
53903;SDS011;39812;52.430;16.936;2022-09-03T02:59:41;6.68;;;3.70;;
53903;SDS011;39812;52.430;16.936;2022-09-03T03:02:10;7.15;;;3.72;;
53903;SDS011;39812;52.430;16.936;2022-09-03T03:04:37;5.75;;;3.50;;
53903;SDS011;39812;52.430;16.936;2022-09-03T03:07:03;6.25;;;3.30;;
53903;SDS011;39812;52.430;16.936;2022-09-03T03:09:29;4.68;;;3.45;;
53903;SDS011;39812;52.430;16.936;2022-09-03T03:11:55;6.15;;;3.60;;
53903;SDS011;39812;52.430;16.936;2022-09-03T03:14:20;5.13;;;3.20;;
53903;SDS011;39812;52.430;16.936;2022-09-03T03:16:46;5.47;;;3.55;;
53903;SDS011;39812;52.430;16.936;2022-09-03T03:19:12;4.38;;;3.20;;
53903;SDS011;39812;52.430;16.936;2022-09-03T03:21:38;8.68;;;3.50;;
53903;SDS011;39812;52.430;16.936;2022-09-03T03:24:04;4.63;;;3.53;;
53903;SDS011;39812;52.430;16.936;2022-09-03T03:26:29;6.18;;;3.75;;
53903;SDS011;39812;52.430;16.936;2022-09-03T03:28:56;6.15;;;3.83;;
53903;SDS011;39812;52.430;16.936;2022-09-03T03:31:23;5.88;;;3.58;;
53903;SDS011;39812;52.430;16.936;2022-09-03T03:33:49;4.50;;;3.15;;
53903;SDS011;39812;52.430;16.936;2022-09-03T03:36:17;4.13;;;3.03;;
53903;SDS011;39812;52.430;16.936;2022-09-03T03:38:43;4.32;;;3.10;;
53903;SDS011;39812;52.430;16.936;2022-09-03T03:41:09;4.43;;;3.47;;
53903;SDS011;39812;52.430;16.936;2022-09-03T03:43:36;4.47;;;3.00;;
53903;SDS011;39812;52.430;16.936;2022-09-03T03:46:01;4.97;;;3.17;;
53903;SDS011;39812;52.430;16.936;2022-09-03T03:48:27;6.13;;;3.30;;
53903;SDS011;39812;52.430;16.936;2022-09-03T03:50:52;5.47;;;3.28;;
53903;SDS011;39812;52.430;16.936;2022-09-03T03:53:18;4.55;;;2.92;;
53903;SDS011;39812;52.430;16.936;2022-09-03T03:55:54;6.30;;;3.67;;
53903;SDS011;39812;52.430;16.936;2022-09-03T03:58:20;4.38;;;3.20;;
53903;SDS011;39812;52.430;16.936;2022-09-03T04:00:46;4.28;;;3.40;;
53903;SDS011;39812;52.430;16.936;2022-09-03T04:03:13;5.40;;;3.22;;
53903;SDS011;39812;52.430;16.936;2022-09-03T04:05:38;4.95;;;3.25;;
53903;SDS011;39812;52.430;16.936;2022-09-03T04:08:04;5.55;;;3.67;;
53903;SDS011;39812;52.430;16.936;2022-09-03T04:10:30;4.80;;;3.40;;
53903;SDS011;39812;52.430;16.936;2022-09-03T04:12:56;5.60;;;3.33;;
53903;SDS011;39812;52.430;16.936;2022-09-03T04:15:21;4.78;;;3.35;;
53903;SDS011;39812;52.430;16.936;2022-09-03T04:17:46;6.75;;;3.30;;
53903;SDS011;39812;52.430;16.936;2022-09-03T04:20:12;5.38;;;3.75;;
53903;SDS011;39812;52.430;16.936;2022-09-03T04:22:37;4.85;;;3.40;;
53903;SDS011;39812;52.430;16.936;2022-09-03T04:25:03;6.90;;;3.03;;
53903;SDS011;39812;52.430;16.936;2022-09-03T04:27:29;5.45;;;3.08;;
53903;SDS011;39812;52.430;16.936;2022-09-03T04:29:55;7.72;;;3.58;;
53903;SDS011;39812;52.430;16.936;2022-09-03T04:32:20;5.07;;;3.10;;
53903;SDS011;39812;52.430;16.936;2022-09-03T04:35:05;4.20;;;3.10;;
53903;SDS011;39812;52.430;16.936;2022-09-03T04:37:31;5.20;;;3.13;;
53903;SDS011;39812;52.430;16.936;2022-09-03T04:39:57;5.03;;;3.15;;
53903;SDS011;39812;52.430;16.936;2022-09-03T04:42:23;5.10;;;3.00;;
53903;SDS011;39812;52.430;16.936;2022-09-03T04:44:48;6.90;;;3.55;;
53903;SDS011;39812;52.430;16.936;2022-09-03T04:47:14;3.35;;;2.67;;
53903;SDS011;39812;52.430;16.936;2022-09-03T04:49:40;6.22;;;3.10;;
53903;SDS011;39812;52.430;16.936;2022-09-03T04:52:05;5.15;;;3.50;;
53903;SDS011;39812;52.430;16.936;2022-09-03T04:54:30;4.13;;;3.03;;
53903;SDS011;39812;52.430;16.936;2022-09-03T04:56:56;4.63;;;3.47;;
53903;SDS011;39812;52.430;16.936;2022-09-03T04:59:22;5.75;;;3.63;;
53903;SDS011;39812;52.430;16.936;2022-09-03T05:01:47;3.95;;;2.80;;
53903;SDS011;39812;52.430;16.936;2022-09-03T05:04:13;5.28;;;3.20;;
53903;SDS011;39812;52.430;16.936;2022-09-03T05:06:38;5.13;;;3.00;;
53903;SDS011;39812;52.430;16.936;2022-09-03T05:09:04;6.00;;;3.45;;
53903;SDS011;39812;52.430;16.936;2022-09-03T05:11:30;4.95;;;3.03;;
53903;SDS011;39812;52.430;16.936;2022-09-03T05:13:56;4.47;;;3.35;;
53903;SDS011;39812;52.430;16.936;2022-09-03T05:16:23;6.40;;;3.25;;
53903;SDS011;39812;52.430;16.936;2022-09-03T05:18:53;4.13;;;2.55;;
53903;SDS011;39812;52.430;16.936;2022-09-03T05:21:21;5.03;;;3.17;;
53903;SDS011;39812;52.430;16.936;2022-09-03T05:23:47;4.70;;;2.78;;
53903;SDS011;39812;52.430;16.936;2022-09-03T05:26:17;5.97;;;3.10;;
53903;SDS011;39812;52.430;16.936;2022-09-03T05:28:45;3.95;;;2.83;;
53903;SDS011;39812;52.430;16.936;2022-09-03T05:31:12;6.03;;;2.75;;
53903;SDS011;39812;52.430;16.936;2022-09-03T05:33:43;5.47;;;3.10;;
53903;SDS011;39812;52.430;16.936;2022-09-03T05:36:13;4.68;;;2.58;;
53903;SDS011;39812;52.430;16.936;2022-09-03T05:38:41;3.55;;;2.60;;
53903;SDS011;39812;52.430;16.936;2022-09-03T05:41:08;3.53;;;2.67;;
53903;SDS011;39812;52.430;16.936;2022-09-03T05:43:35;3.35;;;2.55;;
53903;SDS011;39812;52.430;16.936;2022-09-03T05:46:02;4.75;;;2.65;;
53903;SDS011;39812;52.430;16.936;2022-09-03T05:48:33;4.70;;;2.30;;
53903;SDS011;39812;52.430;16.936;2022-09-03T05:51:04;4.07;;;2.22;;
53903;SDS011;39812;52.430;16.936;2022-09-03T05:53:48;4.10;;;2.30;;
53903;SDS011;39812;52.430;16.936;2022-09-03T05:56:14;3.78;;;2.30;;
53903;SDS011;39812;52.430;16.936;2022-09-03T05:58:42;2.58;;;2.00;;
53903;SDS011;39812;52.430;16.936;2022-09-03T06:03:36;5.07;;;2.83;;
53903;SDS011;39812;52.430;16.936;2022-09-03T06:06:02;3.63;;;2.38;;
53903;SDS011;39812;52.430;16.936;2022-09-03T06:08:29;7.00;;;2.65;;
53903;SDS011;39812;52.430;16.936;2022-09-03T06:10:58;4.13;;;2.50;;
53903;SDS011;39812;52.430;16.936;2022-09-03T06:13:24;3.78;;;2.20;;
53903;SDS011;39812;52.430;16.936;2022-09-03T06:15:54;4.22;;;2.25;;
53903;SDS011;39812;52.430;16.936;2022-09-03T06:18:21;4.15;;;2.60;;
53903;SDS011;39812;52.430;16.936;2022-09-03T06:20:54;4.82;;;2.60;;
53903;SDS011;39812;52.430;16.936;2022-09-03T06:23:23;4.80;;;2.38;;
53903;SDS011;39812;52.430;16.936;2022-09-03T06:28:45;4.95;;;2.17;;
53903;SDS011;39812;52.430;16.936;2022-09-03T06:31:13;3.70;;;2.25;;
53903;SDS011;39812;52.430;16.936;2022-09-03T06:33:40;4.93;;;1.92;;
53903;SDS011;39812;52.430;16.936;2022-09-03T06:36:08;4.20;;;2.33;;
53903;SDS011;39812;52.430;16.936;2022-09-03T06:38:36;3.38;;;2.42;;
53903;SDS011;39812;52.430;16.936;2022-09-03T06:41:02;2.95;;;1.90;;
53903;SDS011;39812;52.430;16.936;2022-09-03T06:43:33;5.03;;;2.20;;
53903;SDS011;39812;52.430;16.936;2022-09-03T06:46:02;5.20;;;2.13;;
53903;SDS011;39812;52.430;16.936;2022-09-03T06:48:34;3.28;;;2.10;;
53903;SDS011;39812;52.430;16.936;2022-09-03T06:51:22;3.38;;;1.83;;
53903;SDS011;39812;52.430;16.936;2022-09-03T06:53:48;5.32;;;2.30;;
53903;SDS011;39812;52.430;16.936;2022-09-03T06:56:18;4.40;;;1.83;;
53903;SDS011;39812;52.430;16.936;2022-09-03T06:58:50;3.72;;;2.30;;
53903;SDS011;39812;52.430;16.936;2022-09-03T07:01:24;3.20;;;1.80;;
53903;SDS011;39812;52.430;16.936;2022-09-03T07:03:52;2.58;;;1.50;;
53903;SDS011;39812;52.430;16.936;2022-09-03T07:06:23;2.83;;;1.65;;
53903;SDS011;39812;52.430;16.936;2022-09-03T07:08:49;2.72;;;1.65;;
53903;SDS011;39812;52.430;16.936;2022-09-03T07:11:16;3.80;;;1.80;;
53903;SDS011;39812;52.430;16.936;2022-09-03T07:13:45;6.05;;;1.90;;
53903;SDS011;39812;52.430;16.936;2022-09-03T07:16:13;7.22;;;1.70;;
53903;SDS011;39812;52.430;16.936;2022-09-03T07:18:40;4.85;;;1.70;;
53903;SDS011;39812;52.430;16.936;2022-09-03T07:21:10;8.13;;;5.65;;
53903;SDS011;39812;52.430;16.936;2022-09-03T07:23:40;4.22;;;2.05;;
53903;SDS011;39812;52.430;16.936;2022-09-03T07:26:11;6.82;;;1.58;;
53903;SDS011;39812;52.430;16.936;2022-09-03T07:28:41;5.90;;;1.50;;
53903;SDS011;39812;52.430;16.936;2022-09-03T07:31:11;5.43;;;1.80;;
53903;SDS011;39812;52.430;16.936;2022-09-03T07:33:54;2.80;;;1.55;;
53903;SDS011;39812;52.430;16.936;2022-09-03T07:36:20;4.32;;;1.58;;
53903;SDS011;39812;52.430;16.936;2022-09-03T07:38:46;5.15;;;1.40;;
53903;SDS011;39812;52.430;16.936;2022-09-03T07:41:13;2.50;;;1.50;;
53903;SDS011;39812;52.430;16.936;2022-09-03T07:43:39;2.83;;;1.40;;
53903;SDS011;39812;52.430;16.936;2022-09-03T07:46:16;3.53;;;1.60;;
53903;SDS011;39812;52.430;16.936;2022-09-03T07:48:46;5.88;;;1.40;;
53903;SDS011;39812;52.430;16.936;2022-09-03T07:51:12;4.47;;;1.40;;
53903;SDS011;39812;52.430;16.936;2022-09-03T07:53:38;2.55;;;1.45;;
53903;SDS011;39812;52.430;16.936;2022-09-03T07:56:04;1.58;;;1.17;;
53903;SDS011;39812;52.430;16.936;2022-09-03T07:58:32;5.22;;;1.38;;
53903;SDS011;39812;52.430;16.936;2022-09-03T08:01:02;2.13;;;1.30;;
53903;SDS011;39812;52.430;16.936;2022-09-03T08:03:41;5.53;;;1.42;;
53903;SDS011;39812;52.430;16.936;2022-09-03T08:06:08;5.03;;;1.45;;
53903;SDS011;39812;52.430;16.936;2022-09-03T08:08:34;5.18;;;1.80;;
53903;SDS011;39812;52.430;16.936;2022-09-03T08:11:08;4.65;;;1.40;;
53903;SDS011;39812;52.430;16.936;2022-09-03T08:13:36;1.63;;;1.10;;
53903;SDS011;39812;52.430;16.936;2022-09-03T08:16:03;2.10;;;1.17;;
53903;SDS011;39812;52.430;16.936;2022-09-03T08:18:29;1.83;;;1.17;;
53903;SDS011;39812;52.430;16.936;2022-09-03T08:20:59;3.80;;;1.40;;
53903;SDS011;39812;52.430;16.936;2022-09-03T08:23:25;5.63;;;1.33;;
53903;SDS011;39812;52.430;16.936;2022-09-03T08:26:00;7.07;;;1.90;;
53903;SDS011;39812;52.430;16.936;2022-09-03T08:30:51;2.58;;;1.75;;
53903;SDS011;39812;52.430;16.936;2022-09-03T08:33:17;2.13;;;1.00;;
53903;SDS011;39812;52.430;16.936;2022-09-03T08:36:00;2.97;;;1.15;;
53903;SDS011;39812;52.430;16.936;2022-09-03T08:38:34;1.75;;;1.00;;
53903;SDS011;39812;52.430;16.936;2022-09-03T08:41:11;3.53;;;0.98;;
53903;SDS011;39812;52.430;16.936;2022-09-03T08:44:02;2.20;;;1.10;;
53903;SDS011;39812;52.430;16.936;2022-09-03T08:46:46;2.85;;;0.93;;
53903;SDS011;39812;52.430;16.936;2022-09-03T08:49:33;2.05;;;1.00;;
53903;SDS011;39812;52.430;16.936;2022-09-03T08:52:00;2.05;;;0.90;;
53903;SDS011;39812;52.430;16.936;2022-09-03T08:54:30;1.25;;;0.85;;
53903;SDS011;39812;52.430;16.936;2022-09-03T08:56:59;1.65;;;0.90;;
53903;SDS011;39812;52.430;16.936;2022-09-03T08:59:26;2.65;;;0.98;;
53903;SDS011;39812;52.430;16.936;2022-09-03T09:05:05;2.40;;;0.70;;
53903;SDS011;39812;52.430;16.936;2022-09-03T09:07:39;2.63;;;0.98;;
53903;SDS011;39812;52.430;16.936;2022-09-03T09:10:19;3.75;;;0.98;;
53903;SDS011;39812;52.430;16.936;2022-09-03T09:15:55;2.40;;;0.85;;
53903;SDS011;39812;52.430;16.936;2022-09-03T09:21:41;3.50;;;1.00;;
53903;SDS011;39812;52.430;16.936;2022-09-03T09:24:18;2.38;;;0.80;;
53903;SDS011;39812;52.430;16.936;2022-09-03T09:26:48;1.33;;;0.70;;
53903;SDS011;39812;52.430;16.936;2022-09-03T09:29:18;1.50;;;0.80;;
53903;SDS011;39812;52.430;16.936;2022-09-03T09:31:44;2.30;;;0.70;;
53903;SDS011;39812;52.430;16.936;2022-09-03T09:34:09;1.88;;;0.60;;
53903;SDS011;39812;52.430;16.936;2022-09-03T09:36:37;1.52;;;0.73;;
53903;SDS011;39812;52.430;16.936;2022-09-03T09:39:17;2.47;;;1.10;;
53903;SDS011;39812;52.430;16.936;2022-09-03T09:41:53;5.00;;;0.63;;
53903;SDS011;39812;52.430;16.936;2022-09-03T09:44:26;1.80;;;0.70;;
53903;SDS011;39812;52.430;16.936;2022-09-03T09:46:59;1.00;;;0.60;;
53903;SDS011;39812;52.430;16.936;2022-09-03T09:49:42;1.63;;;0.70;;
53903;SDS011;39812;52.430;16.936;2022-09-03T09:52:15;2.60;;;0.60;;
53903;SDS011;39812;52.430;16.936;2022-09-03T09:54:41;2.25;;;0.80;;
53903;SDS011;39812;52.430;16.936;2022-09-03T09:57:17;1.27;;;0.80;;
53903;SDS011;39812;52.430;16.936;2022-09-03T09:59:47;2.25;;;1.00;;
53903;SDS011;39812;52.430;16.936;2022-09-03T10:02:16;3.30;;;0.70;;
53903;SDS011;39812;52.430;16.936;2022-09-03T10:04:47;1.13;;;0.75;;
53903;SDS011;39812;52.430;16.936;2022-09-03T10:07:24;2.25;;;1.02;;
53903;SDS011;39812;52.430;16.936;2022-09-03T10:12:43;1.48;;;0.60;;
53903;SDS011;39812;52.430;16.936;2022-09-03T10:15:19;2.42;;;0.70;;
53903;SDS011;39812;52.430;16.936;2022-09-03T10:21:07;2.95;;;0.70;;
53903;SDS011;39812;52.430;16.936;2022-09-03T10:24:06;1.88;;;0.73;;
53903;SDS011;39812;52.430;16.936;2022-09-03T10:26:39;1.52;;;0.70;;
53903;SDS011;39812;52.430;16.936;2022-09-03T10:29:09;1.10;;;0.75;;
53903;SDS011;39812;52.430;16.936;2022-09-03T10:34:28;1.65;;;0.88;;
53903;SDS011;39812;52.430;16.936;2022-09-03T10:39:51;3.15;;;1.00;;
53903;SDS011;39812;52.430;16.936;2022-09-03T10:42:45;4.47;;;0.75;;
53903;SDS011;39812;52.430;16.936;2022-09-03T10:45:34;2.83;;;0.73;;
53903;SDS011;39812;52.430;16.936;2022-09-03T10:56:24;1.55;;;0.55;;
53903;SDS011;39812;52.430;16.936;2022-09-03T11:06:52;1.90;;;0.63;;
53903;SDS011;39812;52.430;16.936;2022-09-03T11:09:20;2.10;;;0.60;;
53903;SDS011;39812;52.430;16.936;2022-09-03T11:11:49;0.75;;;0.50;;
53903;SDS011;39812;52.430;16.936;2022-09-03T11:14:56;4.35;;;0.82;;
53903;SDS011;39812;52.430;16.936;2022-09-03T11:17:24;1.55;;;1.10;;
53903;SDS011;39812;52.430;16.936;2022-09-03T11:20:07;2.40;;;0.90;;
53903;SDS011;39812;52.430;16.936;2022-09-03T11:22:40;3.88;;;0.73;;
53903;SDS011;39812;52.430;16.936;2022-09-03T11:25:09;1.30;;;0.77;;
53903;SDS011;39812;52.430;16.936;2022-09-03T11:30:06;3.30;;;0.98;;
53903;SDS011;39812;52.430;16.936;2022-09-03T11:32:39;2.45;;;0.57;;
53903;SDS011;39812;52.430;16.936;2022-09-03T11:35:13;2.30;;;0.90;;
53903;SDS011;39812;52.430;16.936;2022-09-03T11:37:58;3.20;;;0.60;;
53903;SDS011;39812;52.430;16.936;2022-09-03T11:40:36;1.85;;;0.52;;
53903;SDS011;39812;52.430;16.936;2022-09-03T11:43:05;2.20;;;0.60;;
53903;SDS011;39812;52.430;16.936;2022-09-03T11:47:59;1.33;;;0.68;;
53903;SDS011;39812;52.430;16.936;2022-09-03T11:50:26;2.35;;;0.70;;
53903;SDS011;39812;52.430;16.936;2022-09-03T11:53:38;1.52;;;0.68;;
53903;SDS011;39812;52.430;16.936;2022-09-03T11:55:49;3.15;;;0.80;;
53903;SDS011;39812;52.430;16.936;2022-09-03T11:58:38;1.17;;;0.52;;
53903;SDS011;39812;52.430;16.936;2022-09-03T12:01:08;1.98;;;0.68;;
53903;SDS011;39812;52.430;16.936;2022-09-03T12:03:42;1.02;;;0.60;;
53903;SDS011;39812;52.430;16.936;2022-09-03T12:12:00;4.30;;;0.82;;
53903;SDS011;39812;52.430;16.936;2022-09-03T12:14:38;1.70;;;0.55;;
53903;SDS011;39812;52.430;16.936;2022-09-03T12:17:23;1.23;;;0.57;;
53903;SDS011;39812;52.430;16.936;2022-09-03T12:20:09;1.95;;;0.50;;
53903;SDS011;39812;52.430;16.936;2022-09-03T12:22:37;4.07;;;0.70;;
53903;SDS011;39812;52.430;16.936;2022-09-03T12:25:11;3.58;;;0.60;;
53903;SDS011;39812;52.430;16.936;2022-09-03T12:27:39;2.33;;;0.50;;
53903;SDS011;39812;52.430;16.936;2022-09-03T12:30:16;6.10;;;0.60;;
53903;SDS011;39812;52.430;16.936;2022-09-03T12:32:43;1.42;;;0.52;;
53903;SDS011;39812;52.430;16.936;2022-09-03T12:35:10;1.35;;;0.50;;
53903;SDS011;39812;52.430;16.936;2022-09-03T12:37:38;3.38;;;0.63;;
53903;SDS011;39812;52.430;16.936;2022-09-03T12:40:14;1.38;;;0.57;;
53903;SDS011;39812;52.430;16.936;2022-09-03T12:42:45;3.85;;;0.70;;
53903;SDS011;39812;52.430;16.936;2022-09-03T12:45:11;1.25;;;0.50;;
53903;SDS011;39812;52.430;16.936;2022-09-03T12:47:40;2.38;;;1.13;;
53903;SDS011;39812;52.430;16.936;2022-09-03T12:50:08;5.75;;;0.70;;
53903;SDS011;39812;52.430;16.936;2022-09-03T12:52:40;0.70;;;0.50;;
53903;SDS011;39812;52.430;16.936;2022-09-03T12:55:25;4.22;;;0.80;;
53903;SDS011;39812;52.430;16.936;2022-09-03T13:00:23;4.40;;;0.70;;
53903;SDS011;39812;52.430;16.936;2022-09-03T13:02:59;1.48;;;0.60;;
53903;SDS011;39812;52.430;16.936;2022-09-03T13:05:30;3.42;;;0.75;;
53903;SDS011;39812;52.430;16.936;2022-09-03T13:07:59;4.30;;;0.80;;
53903;SDS011;39812;52.430;16.936;2022-09-03T13:10:33;1.88;;;0.70;;
53903;SDS011;39812;52.430;16.936;2022-09-03T13:13:06;1.63;;;0.60;;
53903;SDS011;39812;52.430;16.936;2022-09-03T13:18:45;2.38;;;0.60;;
53903;SDS011;39812;52.430;16.936;2022-09-03T13:21:36;3.97;;;0.85;;
53903;SDS011;39812;52.430;16.936;2022-09-03T13:34:56;4.13;;;0.70;;
53903;SDS011;39812;52.430;16.936;2022-09-03T13:37:44;2.15;;;0.70;;
53903;SDS011;39812;52.430;16.936;2022-09-03T13:40:23;2.72;;;0.60;;
53903;SDS011;39812;52.430;16.936;2022-09-03T13:42:59;1.48;;;0.55;;
53903;SDS011;39812;52.430;16.936;2022-09-03T13:45:50;2.53;;;0.73;;
53903;SDS011;39812;52.430;16.936;2022-09-03T13:48:34;1.73;;;0.70;;
53903;SDS011;39812;52.430;16.936;2022-09-03T13:51:30;4.63;;;0.90;;
53903;SDS011;39812;52.430;16.936;2022-09-03T13:54:12;2.78;;;0.70;;
53903;SDS011;39812;52.430;16.936;2022-09-03T13:56:56;3.78;;;0.80;;
53903;SDS011;39812;52.430;16.936;2022-09-03T13:59:48;3.20;;;1.23;;
53903;SDS011;39812;52.430;16.936;2022-09-03T14:05:07;3.58;;;0.90;;
53903;SDS011;39812;52.430;16.936;2022-09-03T14:07:52;1.60;;;0.60;;
53903;SDS011;39812;52.430;16.936;2022-09-03T14:10:58;3.63;;;0.70;;
53903;SDS011;39812;52.430;16.936;2022-09-03T14:13:31;2.53;;;0.70;;
53903;SDS011;39812;52.430;16.936;2022-09-03T14:16:23;2.28;;;0.88;;
53903;SDS011;39812;52.430;16.936;2022-09-03T14:19:00;2.88;;;0.90;;
53903;SDS011;39812;52.430;16.936;2022-09-03T14:21:50;3.53;;;1.00;;
53903;SDS011;39812;52.430;16.936;2022-09-03T14:24:21;1.17;;;0.70;;
53903;SDS011;39812;52.430;16.936;2022-09-03T14:26:53;2.35;;;0.60;;
53903;SDS011;39812;52.430;16.936;2022-09-03T14:29:27;3.20;;;0.88;;
53903;SDS011;39812;52.430;16.936;2022-09-03T14:40:04;3.70;;;0.82;;
53903;SDS011;39812;52.430;16.936;2022-09-03T14:43:06;1.48;;;0.70;;
53903;SDS011;39812;52.430;16.936;2022-09-03T14:45:51;4.63;;;0.80;;
53903;SDS011;39812;52.430;16.936;2022-09-03T14:48:39;2.20;;;1.20;;
53903;SDS011;39812;52.430;16.936;2022-09-03T14:51:22;2.33;;;0.90;;
53903;SDS011;39812;52.430;16.936;2022-09-03T14:54:19;2.90;;;0.80;;
53903;SDS011;39812;52.430;16.936;2022-09-03T14:56:49;1.58;;;0.73;;
53903;SDS011;39812;52.430;16.936;2022-09-03T15:07:58;3.17;;;0.90;;
53903;SDS011;39812;52.430;16.936;2022-09-03T15:10:31;2.88;;;0.77;;
53903;SDS011;39812;52.430;16.936;2022-09-03T15:13:16;1.63;;;0.90;;
53903;SDS011;39812;52.430;16.936;2022-09-03T15:18:50;2.28;;;0.82;;
53903;SDS011;39812;52.430;16.936;2022-09-03T15:21:27;1.85;;;0.93;;
53903;SDS011;39812;52.430;16.936;2022-09-03T15:24:16;3.03;;;0.80;;
53903;SDS011;39812;52.430;16.936;2022-09-03T15:26:55;2.15;;;0.80;;
53903;SDS011;39812;52.430;16.936;2022-09-03T15:29:47;4.80;;;1.00;;
53903;SDS011;39812;52.430;16.936;2022-09-03T15:32:27;2.28;;;1.00;;
53903;SDS011;39812;52.430;16.936;2022-09-03T15:42:56;1.83;;;0.80;;
53903;SDS011;39812;52.430;16.936;2022-09-03T15:45:31;3.42;;;0.98;;
53903;SDS011;39812;52.430;16.936;2022-09-03T15:48:06;3.08;;;0.73;;
53903;SDS011;39812;52.430;16.936;2022-09-03T15:53:40;2.65;;;0.90;;
53903;SDS011;39812;52.430;16.936;2022-09-03T15:56:17;3.22;;;1.13;;
53903;SDS011;39812;52.430;16.936;2022-09-03T15:58:54;3.55;;;0.88;;
53903;SDS011;39812;52.430;16.936;2022-09-03T16:01:30;5.38;;;0.98;;
53903;SDS011;39812;52.430;16.936;2022-09-03T16:04:05;1.25;;;0.70;;
53903;SDS011;39812;52.430;16.936;2022-09-03T16:06:46;2.85;;;0.80;;
53903;SDS011;39812;52.430;16.936;2022-09-03T16:12:05;2.72;;;0.95;;
53903;SDS011;39812;52.430;16.936;2022-09-03T16:17:49;3.20;;;1.00;;
53903;SDS011;39812;52.430;16.936;2022-09-03T16:20:24;5.80;;;0.95;;
53903;SDS011;39812;52.430;16.936;2022-09-03T16:22:56;2.60;;;1.00;;
53903;SDS011;39812;52.430;16.936;2022-09-03T16:25:34;3.72;;;0.80;;
53903;SDS011;39812;52.430;16.936;2022-09-03T16:28:14;2.08;;;0.82;;
53903;SDS011;39812;52.430;16.936;2022-09-03T16:37:13;3.25;;;0.80;;
53903;SDS011;39812;52.430;16.936;2022-09-03T16:40:05;3.58;;;0.82;;
53903;SDS011;39812;52.430;16.936;2022-09-03T16:42:44;2.22;;;0.98;;
53903;SDS011;39812;52.430;16.936;2022-09-03T16:45:34;1.25;;;0.70;;
53903;SDS011;39812;52.430;16.936;2022-09-03T16:53:39;2.28;;;0.80;;
53903;SDS011;39812;52.430;16.936;2022-09-03T16:56:15;2.78;;;0.80;;
53903;SDS011;39812;52.430;16.936;2022-09-03T16:58:56;2.38;;;0.80;;
53903;SDS011;39812;52.430;16.936;2022-09-03T17:01:56;2.13;;;1.00;;
53903;SDS011;39812;52.430;16.936;2022-09-03T17:07:59;2.45;;;0.90;;
53903;SDS011;39812;52.430;16.936;2022-09-03T17:10:41;1.85;;;0.93;;
53903;SDS011;39812;52.430;16.936;2022-09-03T17:16:36;1.80;;;1.00;;
53903;SDS011;39812;52.430;16.936;2022-09-03T17:19:38;3.65;;;0.70;;
53903;SDS011;39812;52.430;16.936;2022-09-03T17:22:39;5.22;;;0.82;;
53903;SDS011;39812;52.430;16.936;2022-09-03T17:25:23;2.78;;;1.05;;
53903;SDS011;39812;52.430;16.936;2022-09-03T17:30:52;1.20;;;0.70;;
53903;SDS011;39812;52.430;16.936;2022-09-03T17:33:43;1.23;;;0.82;;
53903;SDS011;39812;52.430;16.936;2022-09-03T17:36:32;1.48;;;0.88;;
53903;SDS011;39812;52.430;16.936;2022-09-03T17:42:11;1.95;;;0.80;;
53903;SDS011;39812;52.430;16.936;2022-09-03T17:45:10;3.25;;;1.00;;
53903;SDS011;39812;52.430;16.936;2022-09-03T17:47:46;2.20;;;0.95;;
53903;SDS011;39812;52.430;16.936;2022-09-03T17:50:42;3.38;;;1.33;;
53903;SDS011;39812;52.430;16.936;2022-09-03T17:53:29;2.92;;;1.17;;
53903;SDS011;39812;52.430;16.936;2022-09-03T17:56:05;3.17;;;1.02;;
53903;SDS011;39812;52.430;16.936;2022-09-03T17:58:42;3.15;;;1.20;;
53903;SDS011;39812;52.430;16.936;2022-09-03T18:01:25;2.75;;;1.05;;
53903;SDS011;39812;52.430;16.936;2022-09-03T18:11:47;1.85;;;1.02;;